Time;durP1;ratioP1;P1;durP2;ratioP2;P2;SDS_P1;SDS_P2;PMS_P1;PMS_P2;Temp;Humidity;BMP_temperature;BMP_pressure;BME280_temperature;BME280_humidity;BME280_pressure;Samples;Min_cycle;Max_cycle;Signal;HPM_P1;HPM_P2
2022/06/19 00:01:05;;;;;;;7.20;2.53;;;22.50;53.10;;;;;;5023638;28;20030;-72
2022/06/19 00:03:33;;;;;;;10.77;2.70;;;22.40;53.20;;;;;;5002484;28;20051;-72
2022/06/19 00:05:59;;;;;;;11.18;2.88;;;22.40;53.50;;;;;;5015558;28;20046;-73
2022/06/19 00:08:26;;;;;;;17.90;2.78;;;22.30;53.40;;;;;;4986028;28;20037;-72
2022/06/19 00:10:51;;;;;;;13.90;2.97;;;22.30;53.60;;;;;;5022000;28;20144;-73
2022/06/19 00:13:17;;;;;;;9.30;2.20;;;22.30;53.70;;;;;;5018077;28;20120;-72
2022/06/19 00:15:42;;;;;;;9.90;2.85;;;22.20;53.80;;;;;;4995792;28;20060;-73
2022/06/19 00:18:08;;;;;;;9.73;2.90;;;22.10;53.90;;;;;;4998007;28;20037;-72
2022/06/19 00:20:33;;;;;;;12.05;2.95;;;22.10;54.10;;;;;;5032140;28;20031;-73
2022/06/19 00:22:59;;;;;;;10.02;2.72;;;22.10;54.30;;;;;;5017123;28;20030;-73
2022/06/19 00:25:24;;;;;;;8.00;3.08;;;22.00;54.30;;;;;;4986304;28;20030;-72
2022/06/19 00:27:50;;;;;;;11.75;2.63;;;22.00;54.60;;;;;;5015499;28;20053;-72
2022/06/19 00:30:16;;;;;;;10.18;2.63;;;22.00;54.50;;;;;;5004173;28;20021;-74
2022/06/19 00:32:41;;;;;;;12.88;3.17;;;22.00;54.60;;;;;;4991082;28;20048;-73
2022/06/19 00:35:07;;;;;;;9.23;2.85;;;21.90;54.70;;;;;;5000032;28;20094;-71
2022/06/19 00:37:34;;;;;;;10.07;2.50;;;21.90;54.90;;;;;;5002568;28;20116;-73
2022/06/19 00:39:59;;;;;;;12.00;2.72;;;21.90;54.90;;;;;;5002193;28;20041;-73
2022/06/19 00:42:26;;;;;;;9.07;2.55;;;21.80;54.90;;;;;;5000595;28;20041;-73
2022/06/19 00:44:52;;;;;;;9.68;3.15;;;21.80;55.20;;;;;;5019043;28;20072;-73
2022/06/19 00:47:34;;;;;;;11.95;2.42;;;21.70;55.20;;;;;;5005119;28;20057;-74
2022/06/19 00:50:05;;;;;;;6.80;2.50;;;21.70;55.20;;;;;;5030744;28;20042;-73
2022/06/19 00:52:35;;;;;;;9.88;2.95;;;21.60;55.40;;;;;;5014015;28;20037;-73
2022/06/19 00:55:24;;;;;;;9.63;3.08;;;21.60;55.50;;;;;;5006696;28;20033;-74
2022/06/19 00:57:57;;;;;;;8.07;2.78;;;21.60;56.10;;;;;;5016429;28;20045;-73
2022/06/19 01:00:26;;;;;;;11.80;2.55;;;21.50;56.00;;;;;;4967519;28;20531;-73
2022/06/19 01:02:53;;;;;;;9.73;2.47;;;21.50;56.00;;;;;;4999997;28;20033;-73
2022/06/19 01:05:18;;;;;;;15.70;2.75;;;21.40;56.00;;;;;;4988119;28;20046;-73
2022/06/19 01:07:44;;;;;;;10.32;2.58;;;21.40;56.20;;;;;;4996960;28;20048;-74
2022/06/19 01:10:12;;;;;;;8.25;2.22;;;21.30;56.20;;;;;;5018759;28;20042;-73
2022/06/19 01:12:38;;;;;;;8.98;2.50;;;21.30;56.20;;;;;;5013787;28;20034;-73
2022/06/19 01:15:06;;;;;;;8.15;2.60;;;21.30;56.40;;;;;;5003658;28;20045;-73
2022/06/19 01:17:32;;;;;;;8.75;2.90;;;21.30;56.50;;;;;;4985903;28;20030;-73
2022/06/19 01:20:00;;;;;;;10.00;2.53;;;21.20;56.60;;;;;;5002310;28;20036;-73
2022/06/19 01:22:34;;;;;;;6.70;2.47;;;21.20;56.90;;;;;;5018520;28;20044;-74
2022/06/19 01:25:08;;;;;;;13.63;2.65;;;21.10;57.00;;;;;;5000133;28;20048;-73
2022/06/19 01:30:23;;;;;;;13.55;2.33;;;21.00;57.10;;;;;;4981707;28;20141;-73
2022/06/19 01:32:49;;;;;;;14.32;2.90;;;20.90;57.10;;;;;;5020624;28;20557;-73
2022/06/19 01:35:15;;;;;;;8.55;2.40;;;20.90;57.30;;;;;;5003624;28;20034;-74
2022/06/19 01:37:41;;;;;;;10.85;2.90;;;20.90;57.40;;;;;;5015914;28;20030;-74
2022/06/19 01:40:23;;;;;;;12.07;2.83;;;20.80;57.50;;;;;;5003464;28;20641;-72
2022/06/19 01:42:48;;;;;;;10.32;2.50;;;20.80;57.70;;;;;;5000024;28;20117;-72
2022/06/19 01:45:14;;;;;;;15.65;2.72;;;20.80;57.80;;;;;;4985396;28;20120;-73
2022/06/19 01:47:41;;;;;;;6.75;2.65;;;20.80;57.90;;;;;;5012060;28;20041;-72
2022/06/19 01:50:10;;;;;;;12.05;2.88;;;20.70;58.00;;;;;;4999260;28;20132;-72
2022/06/19 01:52:35;;;;;;;8.60;2.58;;;20.70;58.20;;;;;;5002749;28;20073;-73
2022/06/19 01:55:08;;;;;;;11.60;3.65;;;20.70;58.40;;;;;;4987510;28;20117;-72
2022/06/19 01:57:35;;;;;;;7.65;3.40;;;20.60;58.60;;;;;;5016556;28;20048;-73
2022/06/19 02:00:03;;;;;;;9.30;2.30;;;20.60;58.60;;;;;;5013548;28;20537;-74
2022/06/19 02:02:32;;;;;;;11.80;3.28;;;20.60;58.60;;;;;;4981209;28;20051;-74
2022/06/19 02:04:58;;;;;;;11.05;3.10;;;20.60;58.60;;;;;;5016537;28;20026;-73
2022/06/19 02:07:23;;;;;;;10.85;2.88;;;20.50;58.80;;;;;;4987896;28;20039;-73
2022/06/19 02:09:51;;;;;;;8.07;2.60;;;20.50;58.90;;;;;;5016216;28;20096;-73
2022/06/19 02:12:17;;;;;;;10.18;2.67;;;20.50;58.90;;;;;;5006643;28;20067;-73
2022/06/19 02:14:42;;;;;;;13.70;3.75;;;20.40;58.80;;;;;;5000847;28;20045;-73
2022/06/19 02:17:17;;;;;;;7.25;3.15;;;20.40;59.00;;;;;;4986249;28;20076;-73
2022/06/19 02:19:42;;;;;;;10.98;3.08;;;20.40;59.10;;;;;;5021568;28;20096;-73
2022/06/19 02:22:12;;;;;;;11.10;3.28;;;20.30;59.10;;;;;;5000577;28;20049;-73
2022/06/19 02:24:38;;;;;;;10.05;2.63;;;20.30;59.40;;;;;;4999626;28;20041;-73
2022/06/19 02:27:04;;;;;;;13.40;3.70;;;20.30;59.30;;;;;;5001110;28;20045;-72
2022/06/19 02:29:30;;;;;;;13.13;2.95;;;20.20;59.40;;;;;;5035756;28;20033;-73
2022/06/19 02:31:56;;;;;;;14.23;3.63;;;20.10;59.50;;;;;;5010306;28;20040;-72
2022/06/19 02:34:29;;;;;;;9.30;2.55;;;20.10;59.60;;;;;;5005048;28;20037;-73
2022/06/19 02:36:56;;;;;;;12.35;2.88;;;20.00;60.00;;;;;;4992481;28;20037;-72
2022/06/19 02:39:50;;;;;;;15.77;2.92;;;20.00;59.90;;;;;;5007821;28;20132;-73
2022/06/19 02:42:22;;;;;;;9.57;3.30;;;20.00;60.30;;;;;;5002459;28;20045;-73
2022/06/19 02:44:54;;;;;;;6.45;2.30;;;20.00;60.20;;;;;;5012005;28;20470;-73
2022/06/19 02:47:24;;;;;;;8.57;2.83;;;19.90;60.20;;;;;;4989534;28;20082;-73
2022/06/19 02:49:50;;;;;;;9.50;2.33;;;19.90;60.20;;;;;;5004587;28;20521;-73
2022/06/19 02:52:15;;;;;;;13.00;2.88;;;19.80;60.20;;;;;;4991876;28;20050;-72
2022/06/19 02:54:41;;;;;;;7.90;2.47;;;19.80;60.20;;;;;;4987462;28;20045;-72
2022/06/19 02:57:08;;;;;;;11.23;3.20;;;19.80;60.40;;;;;;5004113;28;20040;-73
2022/06/19 02:59:34;;;;;;;9.32;3.45;;;19.80;60.50;;;;;;5007868;28;20052;-73
2022/06/19 03:02:00;;;;;;;10.15;2.80;;;19.80;60.70;;;;;;4996987;28;20414;-72
2022/06/19 03:04:36;;;;;;;10.77;2.45;;;19.70;60.80;;;;;;5007019;28;20034;-73
2022/06/19 03:07:02;;;;;;;7.90;3.60;;;19.70;60.90;;;;;;5007682;28;20041;-73
2022/06/19 03:09:28;;;;;;;7.65;2.72;;;19.70;60.90;;;;;;5005681;28;20064;-73
2022/06/19 03:11:53;;;;;;;8.43;3.03;;;19.70;61.00;;;;;;5008563;28;20053;-73
2022/06/19 03:14:19;;;;;;;7.63;2.63;;;19.60;61.20;;;;;;5002847;28;20060;-73
2022/06/19 03:16:45;;;;;;;10.88;2.58;;;19.60;61.30;;;;;;5024847;28;20034;-73
2022/06/19 03:19:11;;;;;;;14.75;3.22;;;19.60;61.50;;;;;;4999974;28;20136;-73
2022/06/19 03:21:37;;;;;;;17.92;3.58;;;19.50;61.60;;;;;;5020612;28;20042;-74
2022/06/19 03:24:03;;;;;;;12.63;3.50;;;19.50;61.70;;;;;;5025048;28;20044;-73
2022/06/19 03:26:30;;;;;;;12.05;2.75;;;19.50;61.80;;;;;;4986799;28;20038;-73
2022/06/19 03:28:56;;;;;;;10.68;3.08;;;19.40;61.80;;;;;;5035300;28;20033;-73
2022/06/19 03:31:22;;;;;;;10.35;3.08;;;19.40;62.00;;;;;;5003019;28;20056;-73
2022/06/19 03:33:48;;;;;;;11.93;2.97;;;19.30;62.00;;;;;;4999341;28;20033;-73
2022/06/19 03:36:14;;;;;;;7.55;2.72;;;19.30;62.10;;;;;;5019945;28;20097;-73
2022/06/19 03:38:39;;;;;;;13.80;3.40;;;19.30;62.10;;;;;;4990903;28;20118;-73
2022/06/19 03:41:05;;;;;;;6.88;2.83;;;19.20;62.10;;;;;;5010385;28;20123;-73
2022/06/19 03:43:33;;;;;;;12.23;3.10;;;19.20;62.40;;;;;;5019001;28;20112;-73
2022/06/19 03:45:59;;;;;;;13.27;3.45;;;19.20;62.50;;;;;;5007558;28;20029;-72
2022/06/19 03:48:25;;;;;;;9.88;2.78;;;19.10;62.70;;;;;;5004614;28;20064;-73
2022/06/19 03:50:53;;;;;;;10.18;2.83;;;19.10;62.50;;;;;;5020785;28;20768;-73
2022/06/19 03:53:19;;;;;;;7.70;2.65;;;19.00;62.80;;;;;;4985193;28;20045;-73
2022/06/19 03:55:44;;;;;;;7.72;2.55;;;19.00;63.00;;;;;;5000782;28;20037;-72
2022/06/19 03:58:10;;;;;;;16.40;3.20;;;18.90;63.30;;;;;;5010481;28;20120;-73
2022/06/19 04:00:35;;;;;;;9.68;3.15;;;18.80;63.60;;;;;;4995525;28;20636;-73
2022/06/19 04:03:01;;;;;;;10.57;2.80;;;18.80;63.60;;;;;;4984566;28;20037;-73
2022/06/19 04:05:26;;;;;;;10.68;3.17;;;18.80;63.70;;;;;;5003579;28;20045;-73
2022/06/19 04:07:52;;;;;;;8.75;2.83;;;18.90;63.80;;;;;;5001457;28;21536;-73
2022/06/19 04:10:18;;;;;;;8.27;2.35;;;18.90;63.90;;;;;;4999201;28;20087;-73
2022/06/19 04:12:44;;;;;;;6.90;2.72;;;18.90;63.80;;;;;;5002494;28;20135;-74
2022/06/19 04:15:10;;;;;;;7.10;2.47;;;18.90;63.60;;;;;;5034184;28;20689;-73
2022/06/19 04:17:37;;;;;;;11.68;2.78;;;18.90;63.60;;;;;;4997964;28;20036;-74
2022/06/19 04:20:03;;;;;;;8.93;2.72;;;19.00;63.70;;;;;;4996348;28;20041;-73
2022/06/19 04:22:29;;;;;;;11.80;3.25;;;19.00;63.70;;;;;;5018946;28;20092;-73
2022/06/19 04:24:54;;;;;;;8.95;2.92;;;19.00;63.90;;;;;;5030831;28;20030;-73
2022/06/19 04:27:20;;;;;;;12.65;3.35;;;19.00;64.20;;;;;;5004081;28;20041;-73
2022/06/19 04:29:45;;;;;;;8.35;2.75;;;19.00;64.40;;;;;;5006864;28;20084;-73
2022/06/19 04:32:11;;;;;;;8.80;2.78;;;19.00;64.30;;;;;;5014013;28;20422;-73
2022/06/19 04:34:36;;;;;;;8.68;3.33;;;19.00;64.20;;;;;;5007784;28;20684;-73
2022/06/19 04:37:02;;;;;;;10.48;3.00;;;19.10;64.30;;;;;;5026192;28;20033;-73
2022/06/19 04:39:27;;;;;;;14.23;3.85;;;19.10;64.40;;;;;;4978165;28;20049;-73
2022/06/19 04:41:53;;;;;;;12.57;2.88;;;19.10;64.40;;;;;;5024068;28;20037;-73
2022/06/19 04:44:18;;;;;;;8.70;2.92;;;19.10;64.60;;;;;;5029709;28;20045;-73
2022/06/19 04:46:44;;;;;;;7.28;3.10;;;19.10;64.60;;;;;;4997009;28;20037;-73
2022/06/19 04:49:10;;;;;;;7.05;2.70;;;19.20;64.60;;;;;;5010769;28;20029;-73
2022/06/19 04:51:36;;;;;;;9.95;3.25;;;19.20;64.40;;;;;;5019469;28;20029;-73
2022/06/19 04:54:01;;;;;;;8.35;2.92;;;19.20;64.30;;;;;;5003180;28;20116;-73
2022/06/19 04:56:27;;;;;;;9.02;2.83;;;19.20;64.30;;;;;;5016254;28;20049;-72
2022/06/19 04:58:52;;;;;;;12.75;2.92;;;19.30;64.40;;;;;;5015564;28;20074;-73
2022/06/19 05:01:21;;;;;;;15.32;3.80;;;19.30;64.40;;;;;;5016407;28;20176;-71
2022/06/19 05:03:47;;;;;;;7.38;2.95;;;19.40;64.70;;;;;;5024034;28;20052;-73
2022/06/19 05:06:12;;;;;;;10.00;3.10;;;19.40;64.70;;;;;;5018980;28;20076;-72
2022/06/19 05:08:38;;;;;;;7.13;3.05;;;19.40;64.50;;;;;;4999225;28;20094;-73
2022/06/19 05:11:03;;;;;;;12.95;3.17;;;19.50;64.40;;;;;;4976168;28;20033;-72
2022/06/19 05:13:29;;;;;;;11.60;3.30;;;19.50;64.40;;;;;;5017646;28;20495;-73
2022/06/19 05:16:16;;;;;;;13.80;2.97;;;19.60;64.20;;;;;;4994345;28;20030;-72
2022/06/19 05:18:42;;;;;;;11.07;3.72;;;19.60;65.10;;;;;;5014094;28;20586;-73
2022/06/19 05:21:07;;;;;;;9.30;3.47;;;19.70;64.60;;;;;;5003004;28;20879;-72
2022/06/19 05:23:39;;;;;;;7.90;2.63;;;19.70;64.80;;;;;;5017655;28;20128;-73
2022/06/19 05:26:16;;;;;;;13.88;3.15;;;19.80;65.10;;;;;;4982271;28;20084;-73
2022/06/19 05:28:43;;;;;;;10.63;3.63;;;19.90;65.40;;;;;;5013341;28;20112;-72
2022/06/19 05:31:08;;;;;;;11.00;3.30;;;19.90;64.90;;;;;;5016128;28;20037;-73
2022/06/19 05:33:34;;;;;;;14.85;3.22;;;20.00;65.00;;;;;;4997156;28;20025;-73
2022/06/19 05:35:59;;;;;;;10.75;3.80;;;20.10;64.90;;;;;;5017457;28;20029;-73
2022/06/19 05:38:25;;;;;;;14.50;3.45;;;20.10;64.70;;;;;;5017367;28;20056;-72
2022/06/19 05:40:54;;;;;;;14.32;4.30;;;20.20;64.90;;;;;;5016672;28;20088;-72
2022/06/19 05:43:20;;;;;;;18.75;3.95;;;20.20;65.00;;;;;;4987906;28;20065;-72
2022/06/19 05:45:56;;;;;;;13.60;3.65;;;20.40;65.20;;;;;;5009173;28;20095;-73
2022/06/19 05:48:23;;;;;;;14.45;3.47;;;20.40;65.20;;;;;;4999076;28;20041;-73
2022/06/19 05:51:05;;;;;;;12.88;3.45;;;20.50;64.90;;;;;;5031397;28;20564;-72
2022/06/19 05:53:32;;;;;;;12.55;3.60;;;20.60;65.20;;;;;;4972134;28;20034;-73
2022/06/19 05:55:58;;;;;;;18.65;4.00;;;20.60;64.60;;;;;;5029762;28;20533;-72
2022/06/19 05:58:23;;;;;;;11.98;2.88;;;20.80;64.70;;;;;;5004225;28;20037;-73
2022/06/19 06:00:49;;;;;;;14.38;4.13;;;20.80;64.50;;;;;;5012908;28;20048;-72
2022/06/19 06:03:16;;;;;;;14.10;3.47;;;20.90;64.50;;;;;;5014134;28;20123;-73
2022/06/19 06:05:43;;;;;;;9.77;3.88;;;21.00;64.50;;;;;;5034960;28;20397;-72
2022/06/19 06:08:09;;;;;;;13.70;3.75;;;21.10;64.40;;;;;;4996760;28;20041;-73
2022/06/19 06:10:34;;;;;;;12.00;3.50;;;21.20;64.50;;;;;;5002517;28;20029;-73
2022/06/19 06:13:00;;;;;;;9.90;3.13;;;21.30;64.20;;;;;;5020380;28;20052;-72
2022/06/19 06:15:25;;;;;;;14.70;4.15;;;21.40;63.90;;;;;;5022536;28;20153;-73
2022/06/19 06:17:51;;;;;;;14.27;3.80;;;21.50;63.90;;;;;;5015790;28;20026;-72
2022/06/19 06:20:16;;;;;;;10.15;3.60;;;21.60;63.90;;;;;;5035439;28;20587;-72
2022/06/19 06:22:42;;;;;;;15.45;3.75;;;21.70;63.70;;;;;;5011445;28;20042;-73
2022/06/19 06:25:10;;;;;;;13.07;4.13;;;21.80;63.40;;;;;;5035857;28;20162;-73
2022/06/19 06:27:35;;;;;;;10.77;3.92;;;21.90;63.30;;;;;;4988244;28;20033;-73
2022/06/19 06:30:01;;;;;;;10.48;3.75;;;22.00;63.10;;;;;;5020183;28;20323;-73
2022/06/19 06:32:26;;;;;;;10.73;3.58;;;22.10;63.00;;;;;;5005155;28;20490;-70
2022/06/19 06:34:52;;;;;;;13.13;4.20;;;22.30;62.80;;;;;;5014864;28;20041;-71
2022/06/19 06:37:17;;;;;;;11.60;3.90;;;22.40;62.60;;;;;;5014347;28;20036;-71
2022/06/19 06:39:43;;;;;;;9.18;3.28;;;22.50;62.40;;;;;;5019520;28;20470;-71
2022/06/19 06:42:09;;;;;;;12.43;4.05;;;22.70;62.30;;;;;;5029796;28;20116;-72
2022/06/19 06:44:34;;;;;;;11.80;3.08;;;22.80;62.00;;;;;;5000473;28;20440;-71
2022/06/19 06:47:01;;;;;;;8.55;3.13;;;23.00;61.70;;;;;;5020932;28;20061;-71
2022/06/19 06:49:27;;;;;;;17.23;4.13;;;23.10;61.30;;;;;;4989751;28;20037;-71
2022/06/19 06:51:53;;;;;;;18.58;3.95;;;23.30;61.00;;;;;;5019637;28;20087;-72
2022/06/19 06:54:18;;;;;;;10.85;3.58;;;23.50;60.60;;;;;;5005601;28;20101;-71
2022/06/19 06:56:44;;;;;;;8.30;3.10;;;23.60;60.20;;;;;;5028002;28;20218;-71
2022/06/19 06:59:09;;;;;;;10.35;3.17;;;23.80;59.80;;;;;;4999261;28;20454;-70
2022/06/19 07:01:35;;;;;;;10.60;3.10;;;24.00;59.50;;;;;;5006048;28;20715;-71
2022/06/19 07:04:01;;;;;;;10.00;3.17;;;24.20;59.20;;;;;;4986903;28;20155;-71
2022/06/19 07:06:28;;;;;;;11.73;3.10;;;24.30;58.80;;;;;;5003962;28;20457;-72
2022/06/19 07:08:54;;;;;;;13.55;3.30;;;24.50;58.40;;;;;;5017365;28;20063;-72
2022/06/19 07:11:24;;;;;;;11.05;4.03;;;24.60;58.00;;;;;;5021877;28;20593;-74
2022/06/19 07:13:50;;;;;;;9.43;3.08;;;24.80;57.80;;;;;;5038781;28;20370;-74
2022/06/19 07:16:15;;;;;;;11.15;2.95;;;25.00;57.50;;;;;;5020066;28;20496;-74
2022/06/19 07:18:41;;;;;;;9.07;3.20;;;25.20;57.30;;;;;;5027192;28;20556;-73
2022/06/19 07:21:06;;;;;;;8.75;3.17;;;25.30;56.90;;;;;;5034841;28;20406;-73
2022/06/19 07:23:32;;;;;;;14.10;3.15;;;25.50;56.60;;;;;;5006554;28;20037;-74
2022/06/19 07:25:57;;;;;;;10.77;3.13;;;25.70;56.40;;;;;;4993458;28;20034;-74
2022/06/19 07:28:23;;;;;;;6.07;2.70;;;25.90;56.00;;;;;;5019887;28;20457;-74
2022/06/19 07:30:48;;;;;;;13.35;3.17;;;26.10;55.80;;;;;;5026615;28;20512;-73
2022/06/19 07:33:14;;;;;;;10.70;3.33;;;26.30;55.50;;;;;;5023968;28;20049;-74
2022/06/19 07:35:40;;;;;;;9.73;3.70;;;26.40;55.10;;;;;;5022505;28;20022;-73
2022/06/19 07:38:05;;;;;;;8.98;3.25;;;26.60;54.80;;;;;;5011872;28;20547;-74
2022/06/19 07:40:31;;;;;;;9.70;2.97;;;26.80;54.40;;;;;;5005617;28;20426;-74
2022/06/19 07:42:56;;;;;;;9.00;3.33;;;27.00;54.00;;;;;;5003142;28;20119;-73
2022/06/19 07:45:22;;;;;;;8.48;2.60;;;27.20;53.80;;;;;;4998257;28;20029;-74
2022/06/19 07:50:36;;;;;;;18.38;3.03;;;27.60;53.30;;;;;;4972289;28;20096;-74
2022/06/19 07:53:02;;;;;;;16.55;2.67;;;27.80;52.80;;;;;;5029615;28;20382;-75
2022/06/19 07:55:28;;;;;;;8.68;2.60;;;28.10;52.50;;;;;;5009218;28;20057;-74
2022/06/19 07:57:54;;;;;;;12.75;3.08;;;28.30;52.10;;;;;;5036977;28;20033;-74
2022/06/19 08:00:25;;;;;;;8.77;2.78;;;28.50;51.70;;;;;;4997365;28;20045;-74
2022/06/19 08:02:51;;;;;;;10.57;3.03;;;28.80;51.20;;;;;;5006760;28;20064;-74
2022/06/19 08:05:18;;;;;;;12.52;2.88;;;29.00;50.90;;;;;;5026074;28;20064;-74
2022/06/19 08:07:43;;;;;;;8.60;2.95;;;29.20;50.30;;;;;;4992334;28;20045;-73
2022/06/19 08:10:14;;;;;;;7.63;3.25;;;29.50;49.90;;;;;;5016339;28;20036;-74
2022/06/19 08:12:39;;;;;;;8.63;3.50;;;29.70;49.30;;;;;;4998636;28;20043;-75
2022/06/19 08:15:07;;;;;;;6.63;3.17;;;29.90;48.80;;;;;;5025787;28;20041;-75
2022/06/19 08:17:33;;;;;;;9.52;3.85;;;30.10;48.20;;;;;;4997459;28;20037;-74
2022/06/19 08:19:58;;;;;;;11.15;3.40;;;30.40;47.60;;;;;;5023447;28;20092;-74
2022/06/19 08:22:24;;;;;;;9.43;3.80;;;30.70;47.20;;;;;;5014652;28;20046;-75
2022/06/19 08:24:51;;;;;;;12.52;3.97;;;30.90;46.60;;;;;;5024168;28;20050;-75
2022/06/19 08:27:16;;;;;;;13.30;4.05;;;31.10;46.00;;;;;;5025597;28;20137;-75
2022/06/19 08:29:42;;;;;;;13.63;4.40;;;31.30;45.50;;;;;;5040140;28;20029;-74
2022/06/19 08:32:07;;;;;;;10.07;4.05;;;31.50;45.10;;;;;;5040494;28;20038;-74
2022/06/19 08:34:33;;;;;;;7.95;3.50;;;31.70;44.60;;;;;;5009167;28;20467;-76
2022/06/19 08:36:59;;;;;;;14.02;4.15;;;31.90;44.30;;;;;;5030803;28;20044;-74
2022/06/19 08:39:25;;;;;;;12.18;4.00;;;32.10;43.80;;;;;;5006250;28;20038;-75
2022/06/19 08:42:00;;;;;;;15.27;4.60;;;32.30;43.40;;;;;;5009562;28;20134;-74
2022/06/19 08:44:52;;;;;;;14.30;4.68;;;32.50;42.40;;;;;;5021459;28;20064;-75
2022/06/19 08:47:29;;;;;;;11.25;4.95;;;32.70;41.90;;;;;;5027032;28;20044;-76
2022/06/19 08:50:20;;;;;;;16.92;4.93;;;32.90;41.60;;;;;;5033971;28;20075;-75
2022/06/19 08:53:07;;;;;;;16.75;4.70;;;33.00;41.50;;;;;;5021480;28;20033;-76
2022/06/19 08:55:40;;;;;;;7.32;4.30;;;33.20;41.00;;;;;;5040259;28;20041;-74
2022/06/19 08:58:34;;;;;;;12.88;4.53;;;33.40;41.30;;;;;;5010204;28;20250;-74
2022/06/19 09:01:21;;;;;;;12.68;4.43;;;33.60;40.40;;;;;;4987521;28;20041;-74
2022/06/19 09:07:08;;;;;;;12.48;4.28;;;34.10;40.60;;;;;;5018715;28;20524;-75
2022/06/19 09:10:05;;;;;;;11.48;4.50;;;34.30;39.10;;;;;;5034610;28;20509;-75
2022/06/19 09:12:39;;;;;;;6.95;4.22;;;34.40;39.20;;;;;;5029748;28;20040;-74
2022/06/19 09:15:10;;;;;;;12.82;4.53;;;34.60;39.10;;;;;;5008471;28;20037;-74
2022/06/19 09:17:45;;;;;;;10.02;4.35;;;34.80;38.80;;;;;;5028565;28;20042;-75
2022/06/19 09:20:21;;;;;;;12.88;4.68;;;35.00;38.40;;;;;;5028052;28;20060;-75
2022/06/19 09:22:52;;;;;;;11.38;4.30;;;35.10;38.20;;;;;;5009845;28;20048;-76
2022/06/19 09:25:39;;;;;;;16.05;5.22;;;35.30;37.80;;;;;;5027436;28;20788;-74
2022/06/19 09:28:30;;;;;;;11.85;4.55;;;35.50;36.90;;;;;;5028791;28;20030;-75
2022/06/19 09:31:15;;;;;;;10.68;4.70;;;35.60;36.50;;;;;;5040448;28;20033;-73
2022/06/19 09:33:59;;;;;;;8.55;5.13;;;35.70;36.20;;;;;;5008005;28;20050;-76
2022/06/19 09:36:31;;;;;;;13.35;4.57;;;35.80;36.70;;;;;;5019714;28;20157;-75
2022/06/19 09:39:02;;;;;;;12.48;4.15;;;36.00;36.60;;;;;;5044714;28;20037;-75
2022/06/19 09:41:41;;;;;;;13.93;4.60;;;36.20;36.80;;;;;;5010218;28;20040;-76
2022/06/19 09:44:21;;;;;;;14.20;4.75;;;36.40;35.80;;;;;;5001392;28;20125;-74
2022/06/19 09:47:12;;;;;;;12.65;4.93;;;36.50;35.90;;;;;;5021961;28;20041;-76
2022/06/19 09:49:40;;;;;;;;;;;36.80;35.80;;;;;;5020788;28;20030;-76
2022/06/19 09:52:14;;;;;;;10.05;4.30;;;37.00;35.80;;;;;;5024107;28;21033;-76
2022/06/19 09:54:40;;;;;;;11.98;4.68;;;37.10;35.60;;;;;;5006573;28;20048;-76
2022/06/19 09:57:12;;;;;;;10.85;4.60;;;37.30;35.30;;;;;;5036546;28;20069;-75
2022/06/19 10:00:03;;;;;;;10.80;5.53;;;37.50;34.90;;;;;;5020160;28;20076;-75
2022/06/19 10:02:43;;;;;;;11.82;4.70;;;37.70;34.00;;;;;;5019678;28;20038;-75
2022/06/19 10:05:20;;;;;;;12.85;4.63;;;37.80;33.80;;;;;;5008086;28;20061;-76
2022/06/19 10:07:57;;;;;;;8.70;4.80;;;38.00;33.70;;;;;;5003670;28;20088;-76
2022/06/19 10:10:43;;;;;;;9.38;4.88;;;38.20;33.00;;;;;;5023106;28;20052;-75
2022/06/19 10:13:20;;;;;;;10.02;4.38;;;38.40;32.40;;;;;;5005566;28;20069;-75
2022/06/19 10:15:45;;;;;;;12.35;4.43;;;38.50;32.60;;;;;;5014899;28;20049;-76
2022/06/19 10:18:21;;;;;;;14.45;4.43;;;38.70;32.50;;;;;;5020663;28;20037;-76
2022/06/19 10:20:54;;;;;;;12.93;5.22;;;38.80;31.40;;;;;;5012408;28;20045;-75
2022/06/19 10:23:50;;;;;;;11.63;4.47;;;38.90;31.60;;;;;;5019729;28;20501;-75
2022/06/19 10:26:28;;;;;;;7.97;4.35;;;39.10;30.70;;;;;;5022067;28;20045;-76
2022/06/19 10:29:10;;;;;;;15.02;5.00;;;39.20;31.30;;;;;;5021245;28;20025;-76
2022/06/19 10:31:47;;;;;;;10.65;4.43;;;39.40;30.30;;;;;;5001235;28;20050;-76
2022/06/19 10:34:35;;;;;;;13.32;4.65;;;39.40;30.70;;;;;;5040817;28;20034;-76
2022/06/19 10:37:10;;;;;;;8.30;4.55;;;39.50;30.00;;;;;;5014136;28;20525;-76
2022/06/19 10:39:53;;;;;;;15.70;5.20;;;39.50;30.00;;;;;;5016321;28;20068;-76
2022/06/19 10:43:07;;;;;;;8.40;4.13;;;39.70;30.00;;;;;;5031913;28;20037;-75
2022/06/19 10:45:44;;;;;;;10.93;4.68;;;39.80;29.60;;;;;;5011523;28;20216;-75
2022/06/19 10:48:26;;;;;;;9.70;4.43;;;40.00;29.80;;;;;;5050993;28;20038;-74
2022/06/19 10:51:26;;;;;;;11.68;5.30;;;40.10;29.40;;;;;;5016649;28;20673;-75
2022/06/19 10:54:00;;;;;;;9.77;4.65;;;40.20;29.00;;;;;;5017611;28;20042;-76
2022/06/19 10:56:43;;;;;;;12.63;4.32;;;40.30;29.50;;;;;;5015775;28;20120;-77
2022/06/19 10:59:09;;;;;;;11.05;4.35;;;40.30;28.90;;;;;;5009609;28;21205;-75
2022/06/19 11:04:27;;;;;;;11.63;4.43;;;40.60;29.10;;;;;;5042283;28;20079;-76
2022/06/19 11:07:00;;;;;;;12.00;5.22;;;40.70;29.10;;;;;;5034742;28;20417;-75
2022/06/19 11:09:43;;;;;;;11.35;4.45;;;40.70;28.80;;;;;;4999394;28;20115;-76
2022/06/19 11:12:58;;;;;;;10.10;4.57;;;40.80;28.40;;;;;;5016046;28;20069;-75
2022/06/19 11:15:35;;;;;;;10.63;4.72;;;41.00;28.30;;;;;;4985599;28;20062;-75
2022/06/19 11:18:18;;;;;;;13.95;5.45;;;41.00;28.30;;;;;;4973771;28;20045;-76
2022/06/19 11:21:11;;;;;;;8.65;4.70;;;41.00;28.10;;;;;;4943054;28;20486;-75
2022/06/19 11:23:49;;;;;;;11.52;4.80;;;41.00;28.10;;;;;;4971775;28;20050;-76
2022/06/19 11:26:19;;;;;;;15.70;5.45;;;41.10;28.30;;;;;;4987333;28;20041;-76
2022/06/19 11:28:45;;;;;;;;;;;41.20;28.40;;;;;;4961603;28;20046;-75
2022/06/19 11:31:18;;;;;;;11.60;5.25;;;41.30;28.40;;;;;;4987577;28;19925;-76
2022/06/19 11:33:44;;;;;;;11.38;5.10;;;41.40;28.20;;;;;;4939355;28;20562;-76
2022/06/19 11:36:22;;;;;;;11.80;5.32;;;41.50;28.20;;;;;;4962967;28;20042;-76
2022/06/19 11:38:49;;;;;;;7.50;4.85;;;41.50;28.10;;;;;;4948859;28;20563;-76
2022/06/19 11:41:25;;;;;;;13.77;5.00;;;41.50;27.90;;;;;;4968483;28;20046;-74
2022/06/19 11:44:10;;;;;;;8.20;4.95;;;41.50;27.60;;;;;;4951524;28;20110;-75
2022/06/19 11:46:48;;;;;;;14.75;4.80;;;41.70;27.40;;;;;;4969253;28;20049;-75
2022/06/19 11:49:36;;;;;;;11.23;4.68;;;41.80;27.50;;;;;;4997157;28;20025;-75
2022/06/19 11:52:03;;;;;;;12.50;4.88;;;41.80;27.40;;;;;;5009374;28;20581;-75
2022/06/19 11:54:41;;;;;;;15.63;4.95;;;41.90;27.60;;;;;;5010990;28;20052;-75
2022/06/19 11:57:22;;;;;;;17.40;5.15;;;41.80;27.40;;;;;;5026960;28;20341;-75
2022/06/19 11:59:47;;;;;;;11.18;4.80;;;41.90;27.40;;;;;;5016290;28;20037;-76
2022/06/19 12:02:31;;;;;;;7.85;4.75;;;42.00;27.50;;;;;;5018873;28;20033;-78
2022/06/19 12:04:59;;;;;;;10.98;5.10;;;42.00;27.00;;;;;;5002869;28;20045;-75
2022/06/19 12:07:28;;;;;;;10.98;5.55;;;42.00;27.30;;;;;;4991152;28;20147;-76
2022/06/19 12:10:04;;;;;;;12.90;5.68;;;42.10;27.40;;;;;;4995775;28;20093;-76
2022/06/19 12:12:31;;;;;;;13.02;5.32;;;42.10;27.10;;;;;;5043699;28;20038;-76
2022/06/19 12:15:10;;;;;;;14.73;5.10;;;42.10;27.20;;;;;;5029748;28;20037;-76
2022/06/19 12:17:38;;;;;;;15.20;5.00;;;42.00;27.10;;;;;;5040898;28;20534;-76
2022/06/19 12:20:19;;;;;;;10.68;5.50;;;42.00;27.20;;;;;;5015481;28;20041;-76
2022/06/19 12:22:53;;;;;;;13.50;5.57;;;42.10;27.00;;;;;;4985618;28;20212;-76
2022/06/19 12:25:24;;;;;;;12.07;5.43;;;42.10;27.00;;;;;;5031259;28;20033;-77
2022/06/19 12:28:18;;;;;;;9.07;5.28;;;42.10;27.00;;;;;;5029089;28;20040;-76
2022/06/19 12:30:48;;;;;;;14.82;5.15;;;42.20;27.10;;;;;;5032536;28;20037;-77
2022/06/19 12:33:22;;;;;;;12.20;5.35;;;42.30;27.20;;;;;;5042438;28;20038;-76
2022/06/19 12:35:48;;;;;;;12.85;6.13;;;42.40;27.20;;;;;;4997311;28;20037;-77
2022/06/19 12:38:14;;;;;;;12.70;5.32;;;42.50;27.10;;;;;;5014504;28;20039;-77
2022/06/19 12:41:04;;;;;;;16.45;5.72;;;42.60;27.10;;;;;;5005775;28;20030;-77
2022/06/19 12:43:57;;;;;;;12.98;5.22;;;42.70;26.80;;;;;;5000267;28;20112;-76
2022/06/19 12:46:30;;;;;;;12.10;5.57;;;42.80;26.70;;;;;;5016154;28;20405;-77
2022/06/19 12:49:13;;;;;;;11.00;5.55;;;42.70;26.80;;;;;;5011002;28;20033;-76
2022/06/19 12:52:02;;;;;;;11.05;5.85;;;42.80;26.80;;;;;;5021911;28;20048;-76
2022/06/19 12:54:46;;;;;;;11.70;5.45;;;42.80;26.80;;;;;;5029792;28;20116;-75
2022/06/19 12:57:18;;;;;;;12.60;5.38;;;42.90;26.70;;;;;;5034549;28;20029;-76
2022/06/19 13:00:15;;;;;;;11.25;5.65;;;43.00;26.70;;;;;;5010855;28;20107;-76
2022/06/19 13:03:00;;;;;;;12.55;5.22;;;43.00;26.50;;;;;;5045775;28;20037;-75
2022/06/19 13:05:47;;;;;;;10.63;5.78;;;43.00;26.70;;;;;;5030991;28;20067;-76
2022/06/19 13:08:22;;;;;;;10.18;5.18;;;43.10;26.30;;;;;;5028168;28;20053;-76
2022/06/19 13:11:02;;;;;;;10.25;5.30;;;43.00;26.30;;;;;;5018026;28;20521;-77